Time;durP1;ratioP1;P1;durP2;ratioP2;P2;SDS_P1;SDS_P2;PMS_P1;PMS_P2;Temp;Humidity;BMP_temperature;BMP_pressure;BME280_temperature;BME280_humidity;BME280_pressure;Samples;Min_cycle;Max_cycle;Signal;HPM_P1;HPM_P2
2022/07/05 00:00:59;;;;;;;3.58;1.20;;;14.90;99.90;;;;;;5054526;28;20475;-71
2022/07/05 00:03:25;;;;;;;4.55;1.30;;;14.80;99.90;;;;;;5054508;28;20411;-71
2022/07/05 00:05:51;;;;;;;5.40;1.50;;;14.80;99.90;;;;;;5054632;28;20055;-71
2022/07/05 00:08:17;;;;;;;4.68;1.30;;;14.50;99.90;;;;;;5041539;28;20081;-71
2022/07/05 00:10:43;;;;;;;9.70;1.60;;;14.40;99.90;;;;;;5023397;28;20080;-71
2022/07/05 00:13:09;;;;;;;4.22;1.27;;;14.20;99.90;;;;;;5050723;28;20048;-70
2022/07/05 00:15:35;;;;;;;4.72;1.23;;;14.10;99.90;;;;;;5045805;28;20094;-70
2022/07/05 00:18:01;;;;;;;5.43;1.13;;;14.00;99.90;;;;;;5054168;28;20067;-71
2022/07/05 00:20:27;;;;;;;3.78;1.40;;;14.00;99.90;;;;;;5053935;28;20391;-70
2022/07/05 00:22:52;;;;;;;5.50;1.30;;;14.10;99.90;;;;;;5040577;28;20041;-72
2022/07/05 00:25:18;;;;;;;3.80;1.27;;;14.10;99.90;;;;;;5048294;28;20041;-72
2022/07/05 00:27:44;;;;;;;3.75;1.30;;;14.10;99.90;;;;;;5053111;28;20067;-72
2022/07/05 00:30:10;;;;;;;5.97;2.58;;;14.20;99.90;;;;;;5055004;28;20126;-73
2022/07/05 00:32:37;;;;;;;3.88;1.50;;;14.10;99.90;;;;;;5053993;28;20048;-72
2022/07/05 00:35:04;;;;;;;5.50;1.70;;;14.10;99.90;;;;;;5045336;28;20048;-71
2022/07/05 00:37:29;;;;;;;4.40;1.40;;;14.10;99.90;;;;;;5050766;28;20044;-71
2022/07/05 00:39:55;;;;;;;4.55;1.60;;;14.10;99.90;;;;;;5031726;28;20103;-71
2022/07/05 00:42:21;;;;;;;3.58;1.40;;;14.10;99.90;;;;;;5043386;28;20048;-71
2022/07/05 00:44:47;;;;;;;4.53;1.50;;;14.10;99.90;;;;;;5047630;28;20128;-72
2022/07/05 00:47:13;;;;;;;5.38;1.85;;;14.20;99.90;;;;;;5050284;28;20468;-71
2022/07/05 00:49:40;;;;;;;4.03;1.90;;;14.20;99.90;;;;;;5035483;28;20047;-71
2022/07/05 00:52:06;;;;;;;4.88;1.70;;;14.20;99.90;;;;;;5040101;28;20077;-74
2022/07/05 00:54:35;;;;;;;4.88;1.50;;;14.10;99.90;;;;;;5037151;28;20041;-72
2022/07/05 00:57:02;;;;;;;4.50;1.60;;;14.10;99.90;;;;;;5042146;28;20060;-71
2022/07/05 00:59:29;;;;;;;4.45;1.50;;;14.00;99.90;;;;;;5067137;28;20033;-72
2022/07/05 01:01:55;;;;;;;5.18;1.80;;;14.00;99.90;;;;;;5053773;28;20045;-73
2022/07/05 01:04:20;;;;;;;5.43;1.60;;;14.00;99.90;;;;;;5037542;28;20049;-71
2022/07/05 01:06:48;;;;;;;3.22;1.33;;;14.00;99.90;;;;;;5042152;28;20057;-72
2022/07/05 01:09:16;;;;;;;5.68;1.92;;;14.00;99.90;;;;;;5037908;28;20548;-71
2022/07/05 01:11:49;;;;;;;5.30;1.90;;;14.00;99.90;;;;;;5033739;28;20049;-71
2022/07/05 01:14:20;;;;;;;4.53;1.77;;;14.00;99.90;;;;;;5027624;28;20468;-72
2022/07/05 01:16:47;;;;;;;5.88;2.00;;;13.90;99.90;;;;;;5063098;28;20444;-71
2022/07/05 01:19:13;;;;;;;3.63;1.33;;;13.80;99.90;;;;;;5045896;28;20113;-71
2022/07/05 01:21:44;;;;;;;3.60;1.40;;;13.70;99.90;;;;;;5033874;28;20045;-71
2022/07/05 01:24:12;;;;;;;4.28;1.35;;;13.70;99.90;;;;;;5033086;28;20045;-71
2022/07/05 01:26:39;;;;;;;4.25;1.65;;;13.70;99.90;;;;;;5033312;28;20115;-72
2022/07/05 01:29:06;;;;;;;3.67;1.50;;;13.70;99.90;;;;;;5042531;28;20365;-74
2022/07/05 01:31:32;;;;;;;4.82;1.60;;;13.70;99.90;;;;;;5036424;28;20056;-73
2022/07/05 01:33:58;;;;;;;3.92;1.50;;;13.70;99.90;;;;;;5033003;28;20412;-71
2022/07/05 01:36:24;;;;;;;3.70;1.50;;;13.70;99.90;;;;;;5046453;28;20075;-71
2022/07/05 01:38:50;;;;;;;4.00;1.50;;;13.70;99.90;;;;;;5039248;28;20044;-71
2022/07/05 01:41:16;;;;;;;4.65;1.80;;;13.70;99.90;;;;;;5057000;28;20115;-71
2022/07/05 01:43:42;;;;;;;3.90;1.60;;;13.60;99.90;;;;;;5030490;28;20464;-71
2022/07/05 01:46:08;;;;;;;4.43;1.88;;;13.60;99.90;;;;;;5041994;28;20041;-71
2022/07/05 01:48:36;;;;;;;5.05;2.20;;;13.60;99.90;;;;;;5050837;28;20049;-70
2022/07/05 01:51:09;;;;;;;3.90;1.70;;;13.50;99.90;;;;;;5046783;28;20063;-71
2022/07/05 01:53:38;;;;;;;3.72;1.58;;;13.40;99.90;;;;;;5036825;28;20037;-71
2022/07/05 01:56:05;;;;;;;4.60;1.65;;;13.40;99.90;;;;;;5052662;28;20402;-72
2022/07/05 01:58:31;;;;;;;4.40;1.65;;;13.40;99.90;;;;;;5037237;28;20649;-72
2022/07/05 02:00:58;;;;;;;3.83;1.60;;;13.40;99.90;;;;;;5052810;28;20053;-71
2022/07/05 02:03:25;;;;;;;5.47;1.90;;;13.40;99.90;;;;;;5037932;28;20046;-73
2022/07/05 02:05:52;;;;;;;3.72;1.80;;;13.40;99.90;;;;;;5052338;28;20056;-72
2022/07/05 02:08:20;;;;;;;4.90;2.20;;;13.40;99.90;;;;;;5052095;28;20485;-70
2022/07/05 02:10:46;;;;;;;4.05;1.80;;;13.30;99.90;;;;;;5053040;28;20037;-71
2022/07/05 02:13:12;;;;;;;4.68;1.92;;;13.30;99.90;;;;;;5051071;28;20495;-71
2022/07/05 02:15:40;;;;;;;4.82;1.92;;;13.30;99.90;;;;;;5048580;28;20491;-72
2022/07/05 02:18:07;;;;;;;6.43;2.00;;;13.20;99.90;;;;;;5051558;28;20060;-72
2022/07/05 02:20:34;;;;;;;3.90;1.80;;;13.20;99.90;;;;;;5030901;28;20061;-71
2022/07/05 02:23:00;;;;;;;4.93;2.00;;;13.20;99.90;;;;;;5047224;28;20287;-71
2022/07/05 02:25:26;;;;;;;6.03;2.60;;;13.20;99.90;;;;;;5033907;28;20052;-71
2022/07/05 02:27:53;;;;;;;4.97;2.10;;;13.20;99.90;;;;;;5046981;28;20041;-71
2022/07/05 02:30:19;;;;;;;4.38;1.85;;;13.20;99.90;;;;;;5041531;28;20103;-72
2022/07/05 02:32:46;;;;;;;5.85;2.38;;;13.20;99.90;;;;;;5036139;28;20133;-72
2022/07/05 02:35:12;;;;;;;4.35;2.05;;;13.20;99.90;;;;;;5039192;28;20041;-71
2022/07/05 02:37:41;;;;;;;4.85;2.50;;;13.20;99.90;;;;;;5035410;28;20537;-71
2022/07/05 02:40:10;;;;;;;5.72;2.53;;;13.10;99.90;;;;;;5045750;28;20056;-71
2022/07/05 02:42:36;;;;;;;10.50;3.42;;;13.10;99.90;;;;;;5042939;28;20045;-71
2022/07/05 02:45:02;;;;;;;6.55;2.40;;;13.00;99.90;;;;;;5051899;28;20375;-71
2022/07/05 02:47:31;;;;;;;4.78;2.30;;;12.90;99.90;;;;;;5041534;28;20112;-71
2022/07/05 02:50:08;;;;;;;6.22;2.20;;;13.00;99.90;;;;;;5031178;28;20068;-71
2022/07/05 02:52:34;;;;;;;5.93;2.85;;;13.00;99.90;;;;;;5015137;28;20464;-72
2022/07/05 02:55:00;;;;;;;5.60;2.97;;;12.90;99.90;;;;;;5033405;28;20049;-71
2022/07/05 02:57:26;;;;;;;5.60;2.75;;;12.90;99.90;;;;;;5041793;28;20095;-72
2022/07/05 02:59:56;;;;;;;5.05;2.50;;;12.90;99.90;;;;;;5044513;28;20037;-72
2022/07/05 03:02:22;;;;;;;5.68;2.72;;;12.90;99.90;;;;;;5045504;28;20484;-74
2022/07/05 03:04:49;;;;;;;8.20;4.32;;;12.90;99.90;;;;;;5035552;28;20056;-72
2022/07/05 03:07:15;;;;;;;9.52;4.63;;;12.90;99.90;;;;;;5031938;28;20136;-72
2022/07/05 03:09:40;;;;;;;5.85;2.80;;;12.80;99.90;;;;;;5015434;28;20057;-71
2022/07/05 03:12:07;;;;;;;6.70;3.75;;;12.70;99.90;;;;;;5031028;28;20049;-74
2022/07/05 03:14:32;;;;;;;6.07;2.90;;;12.70;99.90;;;;;;5041154;28;20041;-72
2022/07/05 03:16:58;;;;;;;5.82;3.08;;;12.70;99.90;;;;;;5051084;28;20380;-71
2022/07/05 03:19:24;;;;;;;6.95;4.03;;;12.70;99.90;;;;;;5052326;28;20041;-71
2022/07/05 03:21:50;;;;;;;6.32;3.40;;;12.70;99.90;;;;;;5032762;28;20183;-71
2022/07/05 03:24:15;;;;;;;5.65;3.53;;;12.70;99.90;;;;;;5035019;28;20045;-75
2022/07/05 03:26:41;;;;;;;8.48;5.10;;;12.70;99.90;;;;;;5045095;28;20044;-72
2022/07/05 03:29:07;;;;;;;7.18;5.38;;;12.70;99.90;;;;;;5052471;28;20039;-72
2022/07/05 03:31:33;;;;;;;8.98;5.63;;;12.70;99.90;;;;;;5035445;28;20041;-75
2022/07/05 03:33:58;;;;;;;7.05;4.20;;;12.60;99.90;;;;;;5035249;28;20052;-73
2022/07/05 03:36:24;;;;;;;9.40;6.65;;;12.60;99.90;;;;;;5043684;28;20120;-72
2022/07/05 03:38:50;;;;;;;9.88;6.53;;;12.60;99.90;;;;;;5054499;28;20053;-72
2022/07/05 03:41:16;;;;;;;8.57;6.07;;;12.60;99.90;;;;;;5051648;28;20041;-74
2022/07/05 03:43:41;;;;;;;11.38;6.53;;;12.50;99.90;;;;;;5027306;28;20041;-72
2022/07/05 03:46:07;;;;;;;7.90;5.07;;;12.50;99.90;;;;;;5054597;28;20044;-71
2022/07/05 03:48:33;;;;;;;7.38;5.15;;;12.50;99.90;;;;;;5047403;28;20073;-71
2022/07/05 03:50:59;;;;;;;8.95;5.97;;;12.50;99.90;;;;;;5048932;28;20134;-72
2022/07/05 03:53:25;;;;;;;9.52;5.75;;;12.50;99.90;;;;;;5053959;28;20480;-72
2022/07/05 03:55:51;;;;;;;7.28;4.00;;;12.50;99.90;;;;;;5043495;28;20049;-73
2022/07/05 03:58:17;;;;;;;9.27;5.25;;;12.50;99.90;;;;;;5037069;28;20080;-72
2022/07/05 04:00:42;;;;;;;8.52;6.40;;;12.50;99.90;;;;;;5028830;28;20125;-75
2022/07/05 04:03:08;;;;;;;10.27;7.57;;;12.50;99.90;;;;;;5050806;28;20033;-72
2022/07/05 04:05:34;;;;;;;11.43;8.40;;;12.50;99.90;;;;;;5037800;28;20045;-73
2022/07/05 04:07:59;;;;;;;9.52;6.85;;;12.50;99.90;;;;;;5055387;28;20067;-72
2022/07/05 04:10:25;;;;;;;12.02;9.00;;;12.50;99.90;;;;;;5048905;28;20038;-72
2022/07/05 04:12:51;;;;;;;8.57;6.60;;;12.40;99.90;;;;;;5025239;28;20484;-72
2022/07/05 04:15:17;;;;;;;10.35;7.30;;;12.40;99.90;;;;;;5051978;28;20099;-73
2022/07/05 04:17:47;;;;;;;8.70;6.30;;;12.40;99.90;;;;;;5033781;28;20060;-73
2022/07/05 04:20:12;;;;;;;10.13;7.40;;;12.40;99.90;;;;;;5036362;28;20076;-73
2022/07/05 04:22:38;;;;;;;10.25;6.90;;;12.50;99.90;;;;;;5045768;28;20073;-72
2022/07/05 04:25:16;;;;;;;11.88;9.45;;;12.50;99.90;;;;;;5034413;28;20120;-72
2022/07/05 04:27:52;;;;;;;10.32;8.30;;;12.50;99.90;;;;;;5032619;28;20116;-72
2022/07/05 04:30:21;;;;;;;11.52;9.13;;;12.60;99.90;;;;;;5018724;28;20052;-72
2022/07/05 04:32:47;;;;;;;12.50;9.43;;;12.60;99.90;;;;;;5035065;28;20051;-73
2022/07/05 04:35:13;;;;;;;12.23;9.73;;;12.60;99.90;;;;;;5001468;28;20411;-72
2022/07/05 04:37:39;;;;;;;14.65;10.48;;;12.60;99.90;;;;;;5035396;28;20037;-72
2022/07/05 04:40:07;;;;;;;14.07;10.68;;;12.60;99.90;;;;;;5034449;28;20044;-72
2022/07/05 04:42:33;;;;;;;11.27;8.80;;;12.60;99.90;;;;;;5036530;28;20034;-72
2022/07/05 04:44:58;;;;;;;10.70;9.50;;;12.70;99.90;;;;;;5039174;28;20029;-73
2022/07/05 04:47:27;;;;;;;11.88;8.85;;;12.60;99.90;;;;;;5018104;28;20038;-71
2022/07/05 04:49:54;;;;;;;14.32;12.63;;;12.70;99.90;;;;;;5034985;28;20043;-72
2022/07/05 04:52:20;;;;;;;12.63;10.52;;;12.70;99.90;;;;;;5036680;28;20427;-71
2022/07/05 04:54:45;;;;;;;13.10;11.57;;;12.80;99.90;;;;;;5037486;28;20034;-71
2022/07/05 04:57:11;;;;;;;12.25;10.45;;;12.80;99.90;;;;;;5032816;28;20483;-73
2022/07/05 04:59:37;;;;;;;13.60;10.30;;;13.10;99.90;;;;;;5034813;28;20119;-77
2022/07/05 05:02:03;;;;;;;13.98;10.25;;;13.40;99.90;;;;;;5042382;28;20120;-72
2022/07/05 05:04:28;;;;;;;12.15;10.38;;;13.70;99.90;;;;;;5015397;28;20492;-74
2022/07/05 05:06:54;;;;;;;11.10;8.88;;;14.10;99.90;;;;;;5032962;28;20101;-74
2022/07/05 05:09:20;;;;;;;9.95;8.30;;;14.80;99.90;;;;;;5001301;28;20060;-71
2022/07/05 05:11:47;;;;;;;11.90;7.65;;;15.60;99.90;;;;;;5034755;28;20049;-72
2022/07/05 05:14:13;;;;;;;7.93;6.78;;;16.40;99.90;;;;;;5032448;28;20052;-71
2022/07/05 05:16:39;;;;;;;9.57;7.32;;;17.20;99.90;;;;;;5047159;28;20128;-71
2022/07/05 05:19:04;;;;;;;10.02;6.13;;;17.50;99.90;;;;;;5053066;28;20533;-72
2022/07/05 05:21:30;;;;;;;9.10;6.72;;;17.80;99.90;;;;;;5053414;28;20090;-71
2022/07/05 05:23:56;;;;;;;10.20;6.80;;;17.90;99.90;;;;;;5036739;28;20038;-71
2022/07/05 05:26:21;;;;;;;9.32;6.30;;;18.00;99.90;;;;;;5041139;28;20044;-71
2022/07/05 05:28:47;;;;;;;7.80;5.95;;;18.60;99.90;;;;;;5062203;28;20049;-72
2022/07/05 05:31:13;;;;;;;8.98;6.13;;;19.00;99.90;;;;;;5050323;28;20037;-71
2022/07/05 05:33:39;;;;;;;8.45;5.80;;;19.50;99.90;;;;;;5052652;28;20040;-72
2022/07/05 05:36:05;;;;;;;9.13;6.07;;;19.70;99.90;;;;;;5036426;28;20126;-75
2022/07/05 05:38:31;;;;;;;7.60;5.88;;;19.90;99.90;;;;;;5029632;28;20052;-71
2022/07/05 05:40:57;;;;;;;8.13;5.40;;;20.40;99.90;;;;;;5043951;28;20045;-72
2022/07/05 05:43:23;;;;;;;8.45;5.65;;;20.50;99.90;;;;;;5035097;28;20372;-71
2022/07/05 05:45:48;;;;;;;7.57;5.60;;;20.70;99.90;;;;;;5043928;28;20121;-72
2022/07/05 05:48:14;;;;;;;7.40;5.63;;;20.80;99.90;;;;;;5038319;28;20456;-71
2022/07/05 05:50:40;;;;;;;9.63;5.20;;;21.10;99.90;;;;;;5051773;28;20053;-72
2022/07/05 05:53:06;;;;;;;10.32;4.93;;;21.70;99.90;;;;;;5036478;28;20071;-72
2022/07/05 05:55:32;;;;;;;8.38;5.45;;;22.80;98.20;;;;;;5041278;28;20130;-72
2022/07/05 05:58:30;;;;;;;9.05;4.72;;;22.60;96.00;;;;;;5031241;28;20045;-72
2022/07/05 06:00:56;;;;;;;8.98;5.22;;;23.00;95.90;;;;;;5016388;28;20136;-72
2022/07/05 06:03:25;;;;;;;9.48;5.35;;;22.90;94.80;;;;;;5042638;28;20179;-72
2022/07/05 06:05:51;;;;;;;7.38;4.75;;;23.20;94.10;;;;;;5032798;28;20061;-72
2022/07/05 06:08:17;;;;;;;7.85;4.57;;;22.90;94.20;;;;;;5035973;28;20045;-71
2022/07/05 06:10:43;;;;;;;7.28;4.30;;;23.20;93.70;;;;;;5033032;28;20049;-72
2022/07/05 06:13:11;;;;;;;7.53;4.78;;;23.60;93.50;;;;;;5042177;28;20060;-73
2022/07/05 06:15:37;;;;;;;6.35;3.75;;;23.40;93.30;;;;;;5017815;28;20041;-72
2022/07/05 06:18:04;;;;;;;7.55;4.43;;;23.70;94.30;;;;;;5014680;28;20484;-73
2022/07/05 06:20:32;;;;;;;6.93;3.97;;;23.60;92.20;;;;;;5036232;28;20041;-72
2022/07/05 06:22:59;;;;;;;6.82;3.72;;;23.90;92.80;;;;;;5047101;28;20383;-72
2022/07/05 06:25:25;;;;;;;7.63;3.50;;;24.00;91.80;;;;;;5050564;28;20048;-72
2022/07/05 06:27:51;;;;;;;8.23;3.30;;;24.50;90.70;;;;;;5033581;28;20059;-71
2022/07/05 06:30:19;;;;;;;5.88;2.88;;;24.70;88.70;;;;;;5039934;28;20049;-73
2022/07/05 06:32:45;;;;;;;7.75;3.22;;;24.60;86.30;;;;;;5033990;28;20045;-71
2022/07/05 06:35:11;;;;;;;7.43;2.97;;;25.00;83.20;;;;;;5051692;28;20349;-72
2022/07/05 06:37:55;;;;;;;7.22;2.90;;;25.40;79.40;;;;;;5032264;28;20037;-73
2022/07/05 06:40:26;;;;;;;6.10;2.28;;;24.70;78.70;;;;;;5031513;28;20085;-74
2022/07/05 06:42:56;;;;;;;5.23;2.23;;;25.10;83.00;;;;;;5027541;28;20080;-71
2022/07/05 06:45:22;;;;;;;6.82;2.20;;;25.30;78.40;;;;;;5034932;28;20037;-73
2022/07/05 06:47:59;;;;;;;5.65;2.08;;;25.20;76.70;;;;;;5031807;28;20049;-71
2022/07/05 06:50:26;;;;;;;5.38;2.10;;;25.30;75.90;;;;;;5042760;28;20050;-70
2022/07/05 06:52:53;;;;;;;6.22;1.92;;;25.30;75.50;;;;;;5032901;28;20052;-72
2022/07/05 06:55:19;;;;;;;5.43;2.20;;;25.40;75.90;;;;;;5045076;28;20129;-71
2022/07/05 06:57:45;;;;;;;5.80;2.20;;;25.20;73.10;;;;;;5046133;28;20103;-71
2022/07/05 07:00:18;;;;;;;5.03;1.90;;;24.90;73.20;;;;;;5040402;28;20061;-71
2022/07/05 07:02:44;;;;;;;6.47;2.08;;;24.70;74.20;;;;;;5022289;28;20047;-73
2022/07/05 07:05:10;;;;;;;5.57;2.03;;;23.60;72.00;;;;;;5043595;28;20053;-77
2022/07/05 07:10:20;;;;;;;5.63;1.95;;;23.30;81.50;;;;;;5037956;28;20085;-75
2022/07/05 07:12:45;;;;;;;4.95;1.50;;;23.60;80.30;;;;;;5037546;28;20041;-72
2022/07/05 07:15:11;;;;;;;5.57;1.80;;;23.70;78.80;;;;;;5046446;28;20041;-72
2022/07/05 07:17:36;;;;;;;3.85;1.40;;;23.50;81.60;;;;;;5040037;28;20481;-71
2022/07/05 07:20:03;;;;;;;7.05;1.80;;;24.00;80.20;;;;;;5039615;28;20070;-72
2022/07/05 07:22:29;;;;;;;5.03;1.55;;;24.10;76.10;;;;;;5035074;28;20128;-70
2022/07/05 07:24:54;;;;;;;6.35;1.60;;;24.30;77.00;;;;;;5040003;28;20124;-73
2022/07/05 07:27:20;;;;;;;4.75;1.73;;;24.60;77.30;;;;;;5018105;28;20508;-72
2022/07/05 07:29:46;;;;;;;5.88;1.50;;;24.80;77.10;;;;;;5031841;28;20045;-73
2022/07/05 07:32:12;;;;;;;6.00;1.67;;;25.10;75.60;;;;;;5028578;28;20473;-75
2022/07/05 07:34:37;;;;;;;5.97;1.85;;;24.50;73.30;;;;;;5032593;28;20369;-72
2022/07/05 07:37:04;;;;;;;6.03;1.90;;;24.40;74.60;;;;;;5031008;28;20180;-73
2022/07/05 07:39:31;;;;;;;4.95;1.70;;;24.00;76.20;;;;;;5035775;28;20462;-70
2022/07/05 07:41:57;;;;;;;6.43;1.80;;;23.70;77.60;;;;;;5032334;28;20053;-73
2022/07/05 07:44:23;;;;;;;5.40;1.67;;;23.40;78.50;;;;;;5034125;28;20391;-73
2022/07/05 07:46:50;;;;;;;4.03;1.55;;;23.40;79.90;;;;;;5034901;28;20049;-73
2022/07/05 07:49:16;;;;;;;5.30;1.80;;;23.30;81.80;;;;;;5030978;28;20416;-72
2022/07/05 07:51:42;;;;;;;6.57;1.70;;;23.20;80.40;;;;;;5037718;28;20049;-73
2022/07/05 07:54:07;;;;;;;4.82;1.60;;;23.00;82.10;;;;;;5034168;28;20033;-71
2022/07/05 07:56:34;;;;;;;6.85;1.65;;;23.20;83.80;;;;;;5033685;28;20397;-73
2022/07/05 07:58:59;;;;;;;6.30;1.85;;;23.50;83.30;;;;;;5029003;28;20103;-73
2022/07/05 08:01:25;;;;;;;5.53;1.45;;;23.70;81.40;;;;;;5029479;28;20041;-74
2022/07/05 08:03:51;;;;;;;6.28;1.50;;;23.70;79.20;;;;;;5031980;28;20037;-71
2022/07/05 08:06:16;;;;;;;5.10;1.70;;;24.00;78.50;;;;;;5032473;28;20049;-72
2022/07/05 08:08:47;;;;;;;5.57;1.60;;;24.00;77.40;;;;;;4971891;28;20053;-73
2022/07/05 08:11:13;;;;;;;6.43;1.58;;;23.60;74.70;;;;;;5031576;28;20590;-75
2022/07/05 08:13:40;;;;;;;4.60;1.40;;;23.20;76.60;;;;;;5033929;28;20061;-73
2022/07/05 08:16:08;;;;;;;5.55;1.40;;;23.50;81.60;;;;;;5031895;28;20057;-72
2022/07/05 08:21:31;;;;;;;4.63;1.60;;;23.60;77.40;;;;;;5030397;28;20131;-71
2022/07/05 08:24:03;;;;;;;6.55;1.80;;;23.10;76.50;;;;;;5047860;28;20069;-72
2022/07/05 08:26:32;;;;;;;7.20;1.40;;;22.60;78.50;;;;;;5037398;28;20566;-71
2022/07/05 08:29:00;;;;;;;5.82;1.40;;;22.30;80.00;;;;;;5033563;28;20439;-71
2022/07/05 08:31:27;;;;;;;5.68;1.30;;;22.10;79.40;;;;;;5052302;28;20400;-73
2022/07/05 08:33:53;;;;;;;6.82;1.30;;;22.00;79.20;;;;;;5037078;28;20051;-71
2022/07/05 08:36:18;;;;;;;4.43;1.27;;;22.00;80.70;;;;;;5034953;28;20054;-73
2022/07/05 08:38:44;;;;;;;4.88;1.27;;;21.80;81.10;;;;;;5031685;28;20476;-73
2022/07/05 08:41:11;;;;;;;6.43;1.30;;;21.90;82.90;;;;;;5034313;28;20057;-71
2022/07/05 08:43:40;;;;;;;6.55;1.13;;;22.10;82.50;;;;;;5033815;28;20033;-72
2022/07/05 08:46:09;;;;;;;4.47;1.13;;;22.40;77.80;;;;;;5033447;28;20051;-71
2022/07/05 08:48:42;;;;;;;5.70;1.23;;;22.10;76.60;;;;;;5035666;28;20119;-73
2022/07/05 08:51:28;;;;;;;5.10;1.10;;;22.00;78.70;;;;;;5035340;28;20111;-71
2022/07/05 08:53:57;;;;;;;4.85;1.23;;;21.80;79.60;;;;;;5025906;28;20128;-73
2022/07/05 08:56:23;;;;;;;3.65;1.10;;;21.40;78.70;;;;;;5031525;28;20053;-73
2022/07/05 08:58:49;;;;;;;6.28;1.35;;;21.10;80.30;;;;;;5032428;28;20042;-73
2022/07/05 09:01:16;;;;;;;4.63;1.40;;;21.10;82.60;;;;;;5037211;28;20133;-73
2022/07/05 09:03:52;;;;;;;4.75;1.23;;;20.90;84.10;;;;;;5046840;28;20121;-71
2022/07/05 09:06:21;;;;;;;5.18;1.27;;;20.90;84.70;;;;;;5034454;28;20507;-71
2022/07/05 09:08:48;;;;;;;5.95;1.30;;;21.10;85.20;;;;;;5033633;28;20049;-75
2022/07/05 09:11:16;;;;;;;5.35;1.20;;;21.70;89.30;;;;;;5031176;28;20049;-73
2022/07/05 09:13:47;;;;;;;5.05;1.30;;;21.70;78.40;;;;;;5028895;28;20052;-70
2022/07/05 09:16:13;;;;;;;5.63;1.30;;;21.50;80.90;;;;;;5035365;28;20065;-71
2022/07/05 09:18:43;;;;;;;4.90;1.20;;;21.40;80.40;;;;;;5032116;28;20060;-70
2022/07/05 09:21:13;;;;;;;3.47;1.10;;;21.30;81.00;;;;;;5029867;28;20489;-71
2022/07/05 09:23:39;;;;;;;5.60;1.30;;;21.50;81.80;;;;;;5034857;28;20084;-71
2022/07/05 09:26:05;;;;;;;5.50;1.10;;;21.50;79.30;;;;;;5020702;28;20053;-70
2022/07/05 09:28:31;;;;;;;6.18;1.30;;;21.50;80.50;;;;;;5045469;28;20053;-70
2022/07/05 09:30:56;;;;;;;5.97;1.30;;;21.30;80.40;;;;;;5030554;28;20120;-70
2022/07/05 09:33:22;;;;;;;4.28;1.00;;;21.10;82.00;;;;;;5046257;28;20056;-69
2022/07/05 09:35:54;;;;;;;4.93;1.20;;;21.10;81.20;;;;;;5036698;28;20053;-71
2022/07/05 09:38:22;;;;;;;5.47;1.30;;;21.00;82.70;;;;;;5018591;28;20088;-70
2022/07/05 09:40:58;;;;;;;4.75;1.08;;;20.90;82.40;;;;;;5049136;28;20057;-70
2022/07/05 09:43:29;;;;;;;4.60;1.17;;;20.90;81.70;;;;;;5032095;28;20049;-75
2022/07/05 09:46:04;;;;;;;4.40;1.25;;;20.90;82.90;;;;;;5030600;28;20045;-70
2022/07/05 09:48:34;;;;;;;6.15;1.30;;;21.00;84.20;;;;;;5031753;28;20045;-72
2022/07/05 09:51:08;;;;;;;4.43;1.20;;;21.10;83.10;;;;;;5046845;28;20037;-72
2022/07/05 09:53:48;;;;;;;5.35;1.30;;;21.10;82.90;;;;;;5012813;28;20072;-72
2022/07/05 09:56:14;;;;;;;6.15;1.27;;;21.00;83.20;;;;;;5031211;28;20053;-70
2022/07/05 09:58:41;;;;;;;5.72;1.17;;;20.90;82.20;;;;;;5029262;28;20055;-70
2022/07/05 10:01:26;;;;;;;6.68;1.60;;;20.80;83.40;;;;;;5048232;28;20170;-70
2022/07/05 10:03:57;;;;;;;11.93;3.33;;;20.80;84.80;;;;;;5028874;28;20392;-71
2022/07/05 10:06:25;;;;;;;4.30;1.13;;;20.90;86.40;;;;;;5035804;28;20134;-70
2022/07/05 10:08:52;;;;;;;12.43;3.30;;;21.50;86.60;;;;;;5030434;28;20041;-70
2022/07/05 10:11:19;;;;;;;10.00;2.20;;;21.90;85.30;;;;;;5030415;28;20462;-70
2022/07/05 10:13:48;;;;;;;4.85;1.10;;;22.10;79.40;;;;;;5029906;28;20127;-70
2022/07/05 10:16:16;;;;;;;5.80;1.23;;;22.20;78.20;;;;;;5046687;28;20076;-70
2022/07/05 10:18:47;;;;;;;4.38;1.20;;;21.90;75.40;;;;;;5027187;28;20053;-71
2022/07/05 10:21:15;;;;;;;6.15;1.30;;;21.80;76.10;;;;;;5045899;28;20485;-71
2022/07/05 10:23:51;;;;;;;4.45;1.27;;;21.70;77.40;;;;;;5030879;28;20057;-72
2022/07/05 10:26:18;;;;;;;5.72;1.10;;;21.70;77.40;;;;;;5029521;28;20057;-69
2022/07/05 10:28:46;;;;;;;3.97;1.10;;;21.70;78.10;;;;;;5029048;28;20069;-69
2022/07/05 10:31:14;;;;;;;4.70;1.10;;;21.70;78.40;;;;;;5031828;28;20049;-73
2022/07/05 10:33:40;;;;;;;5.72;1.27;;;21.50;78.30;;;;;;5030568;28;20045;-69
2022/07/05 10:36:10;;;;;;;5.45;1.08;;;21.20;76.40;;;;;;5047239;28;20041;-69
2022/07/05 10:38:47;;;;;;;4.28;1.13;;;21.10;77.50;;;;;;5028856;28;20080;-69
2022/07/05 10:41:17;;;;;;;4.95;1.10;;;20.90;79.90;;;;;;5031472;28;20496;-69
2022/07/05 10:43:43;;;;;;;5.85;1.30;;;21.00;81.90;;;;;;5044206;28;20065;-69
2022/07/05 10:46:09;;;;;;;4.22;1.10;;;21.10;83.40;;;;;;5046269;28;20049;-70
2022/07/05 10:48:35;;;;;;;5.60;1.00;;;21.40;83.30;;;;;;5032366;28;20575;-69
2022/07/05 10:51:07;;;;;;;5.25;1.08;;;21.50;80.80;;;;;;5014542;28;20128;-71
2022/07/05 10:53:36;;;;;;;4.90;1.10;;;21.50;80.50;;;;;;5033385;28;20395;-74
2022/07/05 10:56:04;;;;;;;4.22;1.10;;;21.50;80.30;;;;;;5045398;28;20061;-72
2022/07/05 10:58:42;;;;;;;4.95;1.25;;;21.50;80.80;;;;;;5030756;28;20056;-69
2022/07/05 11:01:20;;;;;;;6.90;1.30;;;21.40;79.30;;;;;;5031272;28;20590;-71
2022/07/05 11:03:46;;;;;;;5.25;1.30;;;21.30;80.60;;;;;;5027613;28;20099;-70
2022/07/05 11:06:31;;;;;;;4.10;1.10;;;21.30;80.10;;;;;;5028613;28;20484;-71
2022/07/05 11:08:59;;;;;;;5.72;1.13;;;21.40;80.60;;;;;;5028487;28;20080;-69
2022/07/05 11:11:35;;;;;;;5.72;1.10;;;21.40;81.80;;;;;;5030913;28;20058;-69
2022/07/05 11:14:02;;;;;;;5.30;1.30;;;21.30;82.50;;;;;;5043622;28;20053;-70
2022/07/05 11:16:33;;;;;;;4.30;1.10;;;21.30;81.10;;;;;;5032890;28;20054;-71
2022/07/05 11:19:06;;;;;;;5.40;1.20;;;21.40;82.20;;;;;;5032163;28;20140;-73
2022/07/05 11:21:34;;;;;;;5.78;1.20;;;21.30;82.10;;;;;;5029486;28;20125;-72
2022/07/05 11:24:19;;;;;;;5.47;1.10;;;21.40;82.70;;;;;;5031836;28;20139;-71
2022/07/05 11:26:49;;;;;;;5.38;1.40;;;21.50;81.70;;;;;;5031394;28;20073;-71
2022/07/05 11:29:50;;;;;;;5.20;1.10;;;21.50;81.60;;;;;;5029074;28;20069;-69
2022/07/05 11:32:34;;;;;;;4.85;1.20;;;21.50;81.50;;;;;;5044828;28;20092;-72
2022/07/05 11:35:14;;;;;;;5.05;1.20;;;21.60;78.70;;;;;;5045905;28;20493;-70
2022/07/05 11:38:06;;;;;;;4.15;1.20;;;21.60;79.70;;;;;;5031292;28;20057;-69
2022/07/05 11:40:40;;;;;;;5.35;1.20;;;21.60;81.30;;;;;;5032779;28;20075;-69
2022/07/05 11:43:07;;;;;;;3.65;1.20;;;21.70;80.10;;;;;;5031935;28;20045;-69
2022/07/05 11:45:34;;;;;;;4.22;1.20;;;21.80;81.60;;;;;;5032336;28;20061;-73
2022/07/05 11:48:03;;;;;;;5.28;1.40;;;22.10;81.80;;;;;;5036086;28;20041;-69
2022/07/05 11:50:33;;;;;;;6.78;1.50;;;22.40;82.30;;;;;;5032831;28;20061;-70
2022/07/05 11:53:00;;;;;;;4.95;1.35;;;22.40;80.40;;;;;;5032762;28;20573;-69
2022/07/05 11:55:28;;;;;;;5.03;1.30;;;22.30;79.70;;;;;;5034705;28;20557;-72
2022/07/05 11:57:55;;;;;;;5.97;1.30;;;22.30;80.30;;;;;;5031073;28;20120;-70
2022/07/05 12:00:36;;;;;;;6.20;1.40;;;22.20;79.50;;;;;;5033693;28;20049;-71
2022/07/05 12:03:11;;;;;;;4.95;1.33;;;22.10;77.90;;;;;;5026747;28;20037;-71
2022/07/05 12:05:37;;;;;;;6.13;1.40;;;22.00;78.20;;;;;;5031581;28;20053;-72
2022/07/05 12:08:03;;;;;;;5.05;1.20;;;22.10;79.00;;;;;;5032262;28;20048;-70
2022/07/05 12:13:13;;;;;;;5.28;1.20;;;22.50;82.00;;;;;;5021829;28;20404;-70
2022/07/05 12:15:39;;;;;;;4.50;1.20;;;22.80;78.40;;;;;;4959821;28;20064;-71
2022/07/05 12:18:08;;;;;;;5.72;1.20;;;22.90;77.90;;;;;;5042474;28;20056;-70
2022/07/05 12:20:37;;;;;;;4.68;1.10;;;22.90;77.30;;;;;;5032224;28;20400;-69
2022/07/05 12:23:03;;;;;;;6.40;1.30;;;22.90;75.60;;;;;;5030600;28;20408;-69
2022/07/05 12:25:31;;;;;;;4.50;1.15;;;22.80;74.80;;;;;;5034980;28;20137;-71
2022/07/05 12:27:58;;;;;;;5.57;1.30;;;22.60;75.00;;;;;;5032890;28;20053;-69
2022/07/05 12:30:27;;;;;;;4.13;1.15;;;22.50;74.50;;;;;;5035343;28;20445;-70
2022/07/05 12:32:54;;;;;;;6.10;1.40;;;22.50;74.40;;;;;;5031229;28;20053;-70
2022/07/05 12:35:38;;;;;;;5.95;1.30;;;22.70;73.50;;;;;;5048220;28;20096;-69
2022/07/05 12:38:05;;;;;;;7.68;1.30;;;22.70;72.30;;;;;;5032588;28;20162;-70
2022/07/05 12:40:32;;;;;;;4.85;1.10;;;22.80;69.80;;;;;;5032545;28;20041;-74
2022/07/05 12:43:47;;;;;;;5.05;1.20;;;22.90;73.40;;;;;;5034245;28;20045;-70
2022/07/05 12:46:12;;;;;;;5.82;1.20;;;23.10;72.20;;;;;;5005272;28;20643;-70
2022/07/05 12:48:39;;;;;;;4.80;1.30;;;23.10;69.10;;;;;;5030084;28;20132;-69
2022/07/05 12:51:07;;;;;;;5.80;1.20;;;23.00;69.20;;;;;;5033148;28;20052;-69
2022/07/05 12:59:09;;;;;;;4.53;1.00;;;22.30;68.30;;;;;;5031868;28;20154;-70
2022/07/05 13:01:41;;;;;;;5.75;1.23;;;22.50;69.90;;;;;;5031948;28;20064;-73
2022/07/05 13:04:12;;;;;;;4.40;0.95;;;22.50;64.70;;;;;;5031758;28;20527;-69